Hauptseite
METAR-TAF:

METAR-TAF

Flughäfen :

Flughafen Donegal

Donegal, Irland

Breite: 55-02-39N, Länge: 8-20-28W, Höhe: 9 m

Beobachtung

Neuester Wetterbericht von vor 8 Stunden und 48 Minuten, um 19:30 UTC
Wind 4 kt aus Nord
Temperatur 5°C
Luftfeuchtigkeit 65%
Luftdruck 1025 hPa
Sichtweite 10 km oder mehr
Leicht bewölkt in der Höhe von 4100 ft

METAR: EIDL 201930Z 01004KT 9999 FEW041 05/M01 Q1025

Zeit: 04:18 (04:18 UTC)

Prognose

Neuester Wetterbericht von vor 11 Stunden und 18 Minuten, um 17:00 UTC
Gültige Prognose vom 20 um 18 UTC bis 20 um 21 UTC
Wind 15 kt aus Nord/Nordwest
Sichtweite 10 km oder mehr
Leicht bewölkt in der Höhe von 2000 ft
Aufgelockert bewölkt in der Höhe von 4000 ft
Übergehend zu
vom 20 um 18 UTC bis 20 um 21 UTC
Wind 8 kt aus West/Nordwest

TAF: EIDL 201700Z 2018/2021 34015KT 9999 FEW020 SCT040 BECMG 2018/2021 30008KT

Wetterbeobachtungen und Prognosen von mehr als 4000 Flughäfen (METAR und TAF Bericht).

Die verfügbaren Stationen werden durch gelbe und rote Markierungen auf der Karte dargestellt.

Führen Sie die Maus auf sie, um den Namen der Station zu sehen.

Darauf klicken, um die Beobachtung von Wetterbeobachtungen und Prognosen zu sehen.

Um die Karte zu ändern : klicken Sie auf den grünen Tasten mit einem schwarzen Kreuz Zum Vergrößern, auf den grünen Button mit einem Gedankenstrich zu verkleinern, oder auf die grünen Pfeile für benachbarte Karten.


METAR-TAF: